Latest Weather Observations for Evans Head

IDN60801

Issued at 11:35 pm EDT Thursday 30 October 2014 (issued every 30 minutes, with the page automatically refreshed every 10 minutes)

About weather observations | Map of weather stations | Latest weather observations for NSW | Other Formats
Station Details ID: 058212 Name: EVANS HEAD RAAF BOMBING RANGE AWS Lat: -29.18 Lon: 153.40 Height: 62.5 m
Data from the previous 72 hours. | See also: Recent months at Evans Head
Date/Time
EDT
Temp
°C
App
Temp
°C
Dew
Point
Rel
Hum
%
Delta-T
°C
Wind Press
QNH
hPa
Press
MSL
hPa
Rain
since 9 am
mm
Dir
 
Spd
km/h
Gust
km/h
Spd
kts
Gust
kts
30/11:30pm 19.9 19.2 19.4 97 0.3 N 22 32 12 17 1015.4 1015.2 0.0
30/11:00pm 20.1 19.8 19.6 97 0.3 N 20 33 11 18 1015.4 1015.2 0.0
30/10:30pm 20.4 19.9 19.9 97 0.3 N 22 35 12 19 1015.1 1014.9 0.0
30/10:00pm 20.5 20.0 20.0 97 0.3 N 22 32 12 17 1015.0 1014.8 0.0
30/09:30pm 20.7 20.2 20.0 96 0.4 N 22 35 12 19 1015.2 1015.0 0.0
30/09:00pm 20.9 19.9 19.7 93 0.8 NNE 24 39 13 21 1014.9 1014.7 0.0
30/08:30pm 20.9 20.2 19.4 91 1.0 NNE 22 37 12 20 1014.5 1014.3 0.0
30/08:00pm 20.8 19.3 18.6 87 1.4 N 24 35 13 19 1014.1 1013.9 0.0
30/07:30pm 20.8 19.8 18.0 84 1.7 NNE 20 33 11 18 1014.0 1013.8 0.0
30/07:00pm 21.1 19.1 17.5 80 2.2 NNE 24 35 13 19 1013.7 1013.5 0.0
30/06:30pm 21.7 20.0 17.1 75 2.8 NNE 22 33 12 18 1013.4 1013.1 0.0
30/06:00pm 22.4 20.5 16.7 70 3.5 NNE 22 37 12 20 1013.3 1013.0 0.0
30/05:30pm 22.9 20.0 16.2 66 4.1 NNE 26 44 14 24 1012.9 1012.7 0.0
30/05:04pm 23.8 20.6 16.3 63 4.6 NNE 28 46 15 25 1012.9 1012.7 0.0
30/05:00pm 23.8 20.6 16.3 63 4.6 NNE 28 41 15 22 1012.9 1012.7 0.0
30/04:30pm 23.5 19.2 15.3 60 4.9 N 32 46 17 25 1013.0 1012.8 0.0
30/04:00pm 25.6 23.8 15.9 55 5.9 NNE 20 33 11 18 1013.1 1012.9 0.0
30/03:30pm 25.6 23.2 15.3 53 6.2 NNE 22 33 12 18 1013.6 1013.4 0.0
30/03:00pm 25.8 24.4 18.0 62 4.9 NE 22 35 12 19 1013.9 1013.7 0.0
30/02:30pm 25.3 23.2 17.2 61 5.0 NE 24 39 13 21 1014.2 1014.0 0.0
30/02:00pm 25.2 23.6 17.4 62 4.9 ENE 22 33 12 18 1014.8 1014.6 0.0
30/01:30pm 25.5 23.3 16.9 59 5.3 ENE 24 33 13 18 1015.1 1014.9 0.0
30/01:00pm 25.6 23.6 17.3 60 5.2 E 24 32 13 17 1015.7 1015.5 0.0
30/12:30pm 25.9 24.1 17.0 58 5.5 NE 22 32 12 17 1016.1 1015.9 0.0
30/12:00pm 26.6 25.5 17.7 58 5.6 ENE 20 30 11 16 1016.4 1016.2 0.0
30/11:30am 25.8 25.3 17.7 61 5.1 E 17 26 9 14 1017.0 1016.8 0.0
30/11:00am 26.0 27.2 17.4 59 5.4 ENE 7 19 4 10 1017.3 1017.1 0.0
30/10:30am 27.2 28.1 16.5 52 6.6 NNE 7 17 4 9 1017.6 1017.4 0.0
30/10:00am 25.2 25.3 17.4 62 4.9 NE 13 17 7 9 1018.1 1017.9 0.0
30/09:30am 25.1 27.0 17.6 63 4.7 N 4 17 2 9 1018.3 1018.1 0.0
30/09:00am 24.2 25.5 17.0 64 4.4 N 6 11 3 6 1018.3 1018.1 0.0
30/08:30am 22.4 23.8 16.4 69 3.7 N 4 7 2 4 1018.3 1018.1 0.0
30/08:00am 21.2 23.7 17.2 78 2.5 CALM 0 7 0 4 1018.3 1018.1 0.0
30/07:30am 19.5 20.4 16.7 84 1.7 WSW 7 9 4 5 1018.0 1017.8 0.0
30/07:00am 17.8 17.7 16.0 89 1.1 WSW 11 13 6 7 1017.7 1017.5 0.0
30/06:30am 16.8 16.4 16.3 97 0.3 W 13 15 7 8 1017.5 1017.3 0.0
30/06:00am 17.1 17.2 16.5 96 0.4 WSW 11 13 6 7 1017.1 1016.9 0.0
30/05:30am 17.2 17.3 16.4 95 0.5 WSW 11 13 6 7 1016.9 1016.7 0.0
30/05:00am 17.2 17.0 16.7 97 0.3 W 13 13 7 7 1016.7 1016.5 0.0
30/04:30am 17.2 16.9 16.4 95 0.5 SW 13 13 7 7 1016.7 1016.5 0.0
30/04:00am 17.6 17.4 16.6 94 0.6 WSW 13 15 7 8 1016.7 1016.5 0.0
30/03:30am 17.5 17.7 16.7 95 0.5 W 11 13 6 7 1016.9 1016.7 0.0
30/03:00am 17.5 17.2 16.5 94 0.6 WSW 13 15 7 8 1017.0 1016.8 0.0
30/02:30am 17.6 17.6 16.3 92 0.8 WSW 11 13 6 7 1017.0 1016.8 0.0
30/02:00am 17.8 17.5 16.5 92 0.8 WSW 13 13 7 7 1017.2 1017.0 0.0
30/01:30am 17.9 18.0 16.4 91 0.9 W 11 13 6 7 1017.5 1017.3 0.0
30/01:00am 18.0 18.1 16.5 91 0.9 W 11 13 6 7 1017.8 1017.6 0.0
30/12:30am 18.2 18.3 16.4 89 1.1 WSW 11 13 6 7 1018.1 1017.9 0.0
30/12:00am 18.3 18.2 16.1 87 1.3 W 11 13 6 7 1018.2 1018.0 0.0
 
Date/Time
EDT
Temp
°C
App
Temp
°C
Dew
Point
Rel
Hum
%
Delta-T
°C
Wind Press
QNH
hPa
Press
MSL
hPa
Rain
since 9 am
mm
Dir
 
Spd
km/h
Gust
km/h
Spd
kts
Gust
kts
29/11:30pm 18.7 20.9 16.5 87 1.3 CALM 0 0 0 0 1018.3 1018.1 0.0
29/11:00pm 19.5 20.8 17.1 86 1.5 ESE 6 7 3 4 1018.3 1018.1 0.0
29/10:30pm 19.5 20.1 16.7 84 1.7 ESE 9 11 5 6 1018.2 1018.0 0.0
29/10:00pm 19.6 20.0 16.3 81 2.0 ESE 9 13 5 7 1018.2 1018.0 0.0
29/09:30pm 19.8 19.9 16.4 81 2.0 ESE 11 15 6 8 1018.3 1018.1 0.0
29/09:00pm 19.8 19.4 16.3 80 2.1 ESE 13 15 7 8 1017.9 1017.7 0.0
29/08:30pm 20.1 19.2 15.9 77 2.5 ESE 15 19 8 10 1017.5 1017.3 0.0
29/08:00pm 20.2 18.9 15.8 76 2.6 SE 17 22 9 12 1017.1 1016.9 0.0
29/07:30pm 20.2 19.4 16.2 78 2.4 SE 15 22 8 12 1016.8 1016.6 0.0
29/07:00pm 20.6 19.3 15.8 74 2.9 SE 17 20 9 11 1016.5 1016.3 0.0
29/06:30pm 21.2 19.8 15.5 70 3.4 SE 17 22 9 12 1016.3 1016.1 0.0
29/06:00pm 22.1 20.8 15.9 68 3.7 SE 17 22 9 12 1016.0 1015.8 0.0
29/05:30pm 22.7 21.1 16.0 66 4.1 SE 19 24 10 13 1015.6 1015.4 0.0
29/05:00pm 23.2 20.8 15.5 62 4.6 SE 22 28 12 15 1015.2 1015.0 0.0
29/04:30pm 23.6 21.2 15.4 60 4.9 SE 22 33 12 18 1015.2 1015.0 0.0
29/04:00pm 24.4 22.2 15.9 59 5.2 SE 22 32 12 17 1015.3 1015.1 0.0
29/03:30pm 25.2 23.8 16.9 60 5.1 SSE 20 28 11 15 1015.5 1015.3 0.0
29/03:00pm 24.7 22.9 17.9 66 4.3 S 24 33 13 18 1015.8 1015.6 0.0
29/02:30pm 25.2 23.5 18.2 65 4.4 SSE 24 32 13 17 1016.1 1015.9 0.0
29/02:00pm 25.4 23.7 17.3 61 5.1 S 22 32 12 17 1016.2 1016.0 0.0
29/01:30pm 24.9 22.0 17.1 62 4.8 S 28 39 15 21 1016.2 1016.0 0.0
29/01:00pm 25.6 23.6 17.3 60 5.2 S 24 35 13 19 1016.4 1016.2 0.0
29/12:30pm 24.9 21.7 16.3 59 5.3 S 28 39 15 21 1016.5 1016.3 0.0
29/12:00pm 25.4 23.0 17.3 61 5.1 S 26 33 14 18 1016.7 1016.5 0.0
29/11:30am 24.7 21.7 15.9 58 5.4 S 26 39 14 21 1016.9 1016.7 0.0
29/11:00am 24.2 21.0 17.2 65 4.3 S 30 39 16 21 1016.9 1016.7 0.0
29/10:30am 24.3 22.4 18.5 70 3.7 S 26 32 14 17 1016.9 1016.7 0.0
29/10:00am 24.5 24.4 20.0 76 2.9 S 20 30 11 16 1016.8 1016.6 0.0
29/09:30am 23.2 22.2 19.6 80 2.3 S 24 35 13 19 1016.6 1016.4 0.0
29/09:00am 22.8 22.5 19.6 82 2.0 S 20 28 11 15 1016.3 1016.1 0.0
29/08:30am 22.6 22.3 19.2 81 2.2 S 19 26 10 14 1015.8 1015.6 0.0
29/08:00am 21.3 23.1 19.6 90 1.1 SSW 9 15 5 8 1015.5 1015.3 0.0
29/07:30am 19.2 19.5 18.0 93 0.7 SW 13 17 7 9 1015.2 1015.0 0.0
29/07:00am 18.2 18.8 17.7 97 0.3 SSW 11 15 6 8 1014.8 1014.6 0.0
29/06:30am 17.8 19.0 17.3 97 0.3 SW 7 11 4 6 1014.4 1014.2 0.0
29/06:00am 17.4 17.7 16.9 97 0.3 SW 11 15 6 8 1013.9 1013.7 0.0
29/05:30am 17.7 18.1 17.2 97 0.3 SW 11 15 6 8 1013.5 1013.2 0.0
29/05:00am 17.6 17.9 17.1 97 0.3 SW 11 15 6 8 1012.8 1012.6 0.0
29/04:30am 17.9 18.7 17.4 97 0.3 SW 9 13 5 7 1012.6 1012.4 0.0
29/04:00am 18.0 18.1 17.5 97 0.3 SW 13 15 7 8 1012.4 1012.2 0.0
29/03:30am 18.1 18.7 17.6 97 0.3 SW 11 13 6 7 1012.3 1012.1 0.0
29/03:00am 18.1 18.7 17.6 97 0.3 WSW 11 13 6 7 1012.3 1012.1 0.0
29/02:30am 18.1 18.4 17.8 98 0.2 SW 13 17 7 9 1012.1 1011.9 0.0
29/02:00am 18.0 18.6 17.7 98 0.2 SW 11 11 6 6 1012.2 1012.0 0.0
29/01:30am 18.1 18.7 17.8 98 0.2 SW 11 15 6 8 1012.3 1012.1 0.0
29/01:00am 18.3 18.6 18.0 98 0.2 SSW 13 15 7 8 1012.5 1012.3 0.0
29/12:30am 18.4 19.2 18.1 98 0.2 SSW 11 13 6 7 1012.8 1012.6 0.0
29/12:00am 18.7 20.4 18.4 98 0.2 SSW 7 9 4 5 1012.9 1012.7 0.0
 
Date/Time
EDT
Temp
°C
App
Temp
°C
Dew
Point
Rel
Hum
%
Delta-T
°C
Wind Press
QNH
hPa
Press
MSL
hPa
Rain
since 9 am
mm
Dir
 
Spd
km/h
Gust
km/h
Spd
kts
Gust
kts
28/11:30pm 19.1 20.9 18.8 98 0.2 WSW 7 9 4 5 1012.7 1012.5 0.0
28/11:00pm 19.1 21.5 18.8 98 0.2 WSW 4 9 2 5 1012.5 1012.3 0.0
28/10:30pm 19.2 21.3 18.9 98 0.2 N 6 9 3 5 1012.4 1012.2 0.0
28/10:00pm 19.4 21.5 18.9 97 0.3 N 6 9 3 5 1012.1 1011.9 0.0
28/09:30pm 20.1 23.2 19.6 97 0.3 SE 2 6 1 3 1012.0 1011.8 0.0
28/09:00pm 20.0 22.1 19.0 94 0.6 ESE 6 7 3 4 1012.0 1011.8 0.0
28/08:30pm 20.3 22.1 18.8 91 0.9 E 7 9 4 5 1011.7 1011.5 0.0
28/08:00pm 20.2 22.0 18.3 89 1.2 ESE 6 9 3 5 1011.4 1011.2 0.0
28/07:30pm 20.4 22.1 18.5 89 1.2 NE 7 11 4 6 1011.0 1010.8 0.0
28/07:00pm 21.0 22.3 18.4 85 1.6 NE 9 11 5 6 1010.7 1010.5 0.0
28/06:30pm 21.7 22.8 17.9 79 2.4 E 9 13 5 7 1010.4 1010.2 0.0
28/06:00pm 22.5 23.1 17.8 75 2.9 ENE 11 17 6 9 1010.1 1009.9 0.0
28/05:30pm 23.0 23.6 17.7 72 3.3 E 11 17 6 9 1009.9 1009.7 0.0
28/05:00pm 23.1 23.7 17.6 71 3.4 ESE 11 15 6 8 1010.0 1009.8 0.0
28/04:30pm 23.2 22.9 17.4 70 3.6 SE 15 19 8 10 1009.8 1009.6 0.0
28/04:00pm 23.9 23.8 17.9 69 3.8 SSE 15 20 8 11 1009.9 1009.7 0.0
28/03:30pm 24.4 24.4 18.1 68 4.0 SSE 15 20 8 11 1010.2 1010.0 0.0
28/03:00pm 24.6 23.9 17.3 64 4.5 S 17 22 9 12 1010.3 1010.1 0.0
28/02:30pm 24.4 23.3 17.4 65 4.4 S 19 26 10 14 1010.6 1010.4 0.0
28/02:00pm 24.7 23.5 17.4 64 4.6 S 20 28 11 15 1011.1 1010.9 0.0
28/01:30pm 25.0 23.5 16.7 60 5.1 S 20 26 11 14 1011.4 1011.2 0.0
28/01:00pm 25.1 23.4 17.3 62 4.9 S 22 30 12 16 1011.8 1011.6 0.0
28/12:30pm 24.8 22.6 17.0 62 4.8 S 24 35 13 19 1012.0 1011.8 0.0
28/12:00pm 23.9 21.0 16.2 62 4.7 S 26 33 14 18 1012.2 1012.0 0.0
28/11:30am 23.9 20.2 15.9 61 4.9 S 30 39 16 21 1012.6 1012.4 0.0
28/11:00am 23.4 18.8 15.2 60 4.9 S 33 44 18 24 1012.7 1012.5 0.0
28/10:30am 24.0 19.7 16.0 61 4.9 S 33 43 18 23 1013.1 1012.9 0.0
28/10:00am 23.8 19.4 16.6 64 4.4 S 35 50 19 27 1013.1 1012.9 0.0
28/09:30am 23.3 18.9 16.6 66 4.1 S 35 48 19 26 1012.9 1012.7 0.0
28/09:00am 22.6 17.7 16.4 68 3.8 S 37 52 20 28 1012.9 1012.7 0.0
28/08:30am 22.5 18.5 16.8 70 3.5 S 33 50 18 27 1012.6 1012.4 0.0
28/08:00am 21.6 16.8 16.6 73 3.0 S 37 50 20 27 1011.9 1011.7 0.0
28/07:30am 21.2 17.2 16.8 76 2.7 S 33 52 18 28 1011.8 1011.6 0.0
28/07:19am 21.0 17.3 17.0 78 2.4 S 32 50 17 27 1011.6 1011.4 0.0
28/07:00am 20.3 16.5 16.7 80 2.2 SSW 32 44 17 24 1011.4 1011.2 0.0
28/06:30am 20.9 17.0 16.9 78 2.4 S 33 48 18 26 1010.6 1010.4 0.0
28/06:10am 21.0 16.4 17.2 79 2.3 S 37 56 20 30 1010.3 1010.1 0.0
28/06:00am 20.9 16.1 17.5 81 2.1 S 39 54 21 29 1010.0 1009.8 0.0
28/05:32am 21.0 17.0 18.4 85 1.6 S 37 56 20 30 1009.5 1009.3 0.0
28/05:30am 21.1 16.7 18.5 85 1.6 S 39 56 21 30 1009.5 1009.3 0.0
28/05:07am 23.6 19.7 16.9 66 4.1 S 33 67 18 36 1008.5 1008.3 0.0
28/05:03am 25.1 21.8 16.0 57 5.6 S 28 44 15 24 1008.4 1008.2 0.0
28/05:00am 26.4 24.3 13.5 45 7.6 NW 17 24 9 13 1007.5 1007.3 0.0
28/04:30am 26.0 24.0 13.8 47 7.2 NW 17 22 9 12 1007.0 1006.8 0.0
28/04:00am 25.7 24.7 14.5 50 6.7 NW 13 19 7 10 1006.9 1006.7 0.0
28/03:30am 24.9 23.3 15.0 54 5.9 NW 17 26 9 14 1006.9 1006.7 0.0
28/03:00am 23.7 23.9 17.7 69 3.8 NW 13 20 7 11 1006.8 1006.6 0.0
28/02:30am 22.0 23.9 20.6 92 0.9 NNW 11 15 6 8 1007.1 1006.9 0.0
28/02:00am 23.5 25.6 21.0 86 1.6 NW 11 15 6 8 1007.2 1007.0 0.0
28/01:30am 22.7 25.4 22.2 97 0.3 W 11 17 6 9 1007.8 1007.6 0.0
28/01:00am 22.1 25.6 21.8 98 0.2 NW 6 9 3 5 1007.7 1007.5 0.0
28/12:30am 22.3 25.8 21.8 97 0.3 NNW 6 13 3 7 1007.0 1006.8 0.0
28/12:00am 22.0 24.5 21.7 98 0.2 W 11 19 6 10 1007.3 1007.1 0.0

Other Formats:

Comma delimited format used in spreadsheet applications
http://www.bom.gov.au/fwo/IDN60801/IDN60801.94598.axf

JavaScript Object Notation format (JSON) in row-major order
http://www.bom.gov.au/fwo/IDN60801/IDN60801.94598.json